Time;durP1;ratioP1;P1;durP2;ratioP2;P2;SDS_P1;SDS_P2;PMS_P1;PMS_P2;Temp;Humidity;BMP_temperature;BMP_pressure;BME280_temperature;BME280_humidity;BME280_pressure;Samples;Min_cycle;Max_cycle;Signal;HPM_P1;HPM_P2
2024/01/17 00:02:10;;;;;;;5.43;4.40;;;;;;;;;;5091135;28;20356;-78
2024/01/17 00:04:38;;;;;;;5.70;4.37;;;;;;;;;;5091051;28;20208;-78
2024/01/17 00:07:04;;;;;;;6.90;4.10;;;;;;;;;;5091101;28;20215;-79
2024/01/17 00:09:33;;;;;;;4.50;3.20;;;;;;;;;;5091109;28;20209;-78
2024/01/17 00:12:03;;;;;;;6.83;5.07;;;;;;;;;;5091134;28;20200;-79
2024/01/17 00:14:30;;;;;;;5.40;4.53;;;;;;;;;;5090938;28;20227;-79
2024/01/17 00:16:56;;;;;;;4.53;3.30;;;;;;;;;;5090750;28;20211;-79
2024/01/17 00:19:23;;;;;;;5.80;3.77;;;;;;;;;;5091081;28;20210;-78
2024/01/17 00:21:50;;;;;;;7.57;5.30;;;;;;;;;;5091240;28;20223;-79
2024/01/17 00:24:17;;;;;;;11.53;6.87;;;;;;;;;;5090755;28;20216;-79
2024/01/17 00:26:45;;;;;;;18.10;8.90;;;;;;;;;;5090685;28;20679;-79
2024/01/17 00:29:13;;;;;;;13.70;7.10;;;;;;;;;;5090812;28;20232;-79
2024/01/17 00:31:40;;;;;;;14.20;6.30;;;;;;;;;;5094121;28;20215;-79
2024/01/17 00:34:06;;;;;;;11.47;7.27;;;;;;;;;;5094991;28;20196;-79
2024/01/17 00:36:33;;;;;;;13.67;7.37;;;;;;;;;;5094851;28;20207;-78
2024/01/17 00:39:00;;;;;;;15.63;7.97;;;;;;;;;;5094965;28;20200;-78
2024/01/17 00:41:27;;;;;;;7.87;5.63;;;;;;;;;;5095100;28;20712;-78
2024/01/17 00:43:55;;;;;;;6.60;4.77;;;;;;;;;;5094969;28;20200;-79
2024/01/17 00:46:22;;;;;;;4.27;3.43;;;;;;;;;;5094914;28;20211;-79
2024/01/17 00:48:48;;;;;;;4.23;3.67;;;;;;;;;;5094330;28;20615;-78
2024/01/17 00:51:22;;;;;;;4.23;3.80;;;;;;;;;;5094665;28;20683;-79
2024/01/17 00:53:49;;;;;;;6.00;3.70;;;;;;;;;;5094431;28;20729;-79
2024/01/17 00:56:16;;;;;;;7.20;3.97;;;;;;;;;;5095003;28;20204;-79
2024/01/17 00:58:43;;;;;;;7.40;4.67;;;;;;;;;;5094478;28;20204;-79
2024/01/17 01:01:13;;;;;;;6.10;4.50;;;;;;;;;;5094199;28;20223;-79
2024/01/17 01:03:40;;;;;;;5.33;3.73;;;;;;;;;;5094198;28;20291;-78
2024/01/17 01:06:07;;;;;;;6.43;4.07;;;;;;;;;;5089414;28;20200;-85
2024/01/17 01:08:33;;;;;;;6.10;4.87;;;;;;;;;;5094181;28;20683;-86
2024/01/17 01:11:00;;;;;;;6.30;4.27;;;;;;;;;;5094636;28;20203;-84
2024/01/17 01:13:27;;;;;;;5.73;4.17;;;;;;;;;;5094167;28;20211;-84
2024/01/17 01:15:54;;;;;;;6.67;4.23;;;;;;;;;;5094354;28;20273;-84
2024/01/17 01:18:22;;;;;;;5.03;4.03;;;;;;;;;;5094594;28;20593;-86
2024/01/17 01:20:49;;;;;;;3.80;3.40;;;;;;;;;;5094129;28;20220;-85
2024/01/17 01:23:15;;;;;;;5.37;4.07;;;;;;;;;;5093885;28;20204;-84
2024/01/17 01:25:42;;;;;;;4.30;3.63;;;;;;;;;;5094106;28;20257;-85
2024/01/17 01:28:09;;;;;;;4.33;3.37;;;;;;;;;;5094481;28;20232;-88
2024/01/17 01:30:36;;;;;;;3.70;3.40;;;;;;;;;;5094750;28;20204;-87
2024/01/17 01:33:02;;;;;;;3.43;3.13;;;;;;;;;;5095081;28;20208;-88
2024/01/17 01:35:31;;;;;;;6.00;2.80;;;;;;;;;;5094658;28;20281;-85
2024/01/17 01:37:57;;;;;;;4.33;3.70;;;;;;;;;;5093917;28;20270;-84
2024/01/17 01:40:24;;;;;;;3.17;2.87;;;;;;;;;;5093464;28;20249;-85
2024/01/17 01:42:53;;;;;;;4.47;3.30;;;;;;;;;;5092399;28;20211;-86
2024/01/17 01:45:19;;;;;;;3.00;2.63;;;;;;;;;;5093287;28;20275;-86
2024/01/17 01:47:46;;;;;;;3.03;2.80;;;;;;;;;;5093480;28;20204;-84
2024/01/17 01:50:13;;;;;;;3.63;3.30;;;;;;;;;;5094081;28;20196;-85
2024/01/17 01:52:43;;;;;;;3.63;2.60;;;;;;;;;;5093875;28;20265;-84
2024/01/17 01:55:13;;;;;;;4.20;3.37;;;;;;;;;;5093796;28;20253;-86
2024/01/17 01:57:41;;;;;;;3.00;2.70;;;;;;;;;;5093570;28;20269;-85
2024/01/17 02:00:09;;;;;;;6.17;3.57;;;;;;;;;;5093996;28;20631;-88
2024/01/17 02:02:36;;;;;;;4.87;3.90;;;;;;;;;;5093582;28;20231;-84
2024/01/17 02:05:05;;;;;;;25.53;11.60;;;;;;;;;;5093522;28;20211;-84
2024/01/17 02:07:33;;;;;;;15.57;8.30;;;;;;;;;;5093105;28;20265;-84
2024/01/17 02:10:02;;;;;;;5.07;3.20;;;;;;;;;;5093556;28;20196;-84
2024/01/17 02:12:29;;;;;;;3.80;3.33;;;;;;;;;;5093188;28;20757;-84
2024/01/17 02:14:55;;;;;;;4.43;3.70;;;;;;;;;;5093345;28;20196;-85
2024/01/17 02:17:23;;;;;;;4.50;3.57;;;;;;;;;;5093358;28;20200;-85
2024/01/17 02:19:50;;;;;;;3.37;3.07;;;;;;;;;;5092762;28;20675;-85
2024/01/17 02:22:17;;;;;;;4.00;3.40;;;;;;;;;;5092868;28;20235;-84
2024/01/17 02:24:45;;;;;;;11.03;7.63;;;;;;;;;;5092953;28;20208;-84
2024/01/17 02:27:15;;;;;;;9.17;6.73;;;;;;;;;;5093272;28;20219;-84
2024/01/17 02:29:45;;;;;;;11.43;7.90;;;;;;;;;;5092963;28;20236;-82
2024/01/17 02:32:15;;;;;;;6.50;4.53;;;;;;;;;;5092989;28;20215;-84
2024/01/17 02:34:41;;;;;;;4.93;3.60;;;;;;;;;;5092740;28;20207;-83
2024/01/17 02:37:09;;;;;;;7.83;6.00;;;;;;;;;;5092656;28;20683;-86
2024/01/17 02:39:36;;;;;;;10.80;7.50;;;;;;;;;;5093192;28;20300;-85
2024/01/17 02:42:05;;;;;;;5.53;4.63;;;;;;;;;;5092776;28;20254;-80
2024/01/17 02:44:32;;;;;;;4.47;3.47;;;;;;;;;;5092457;28;20223;-83
2024/01/17 02:46:59;;;;;;;9.20;7.53;;;;;;;;;;5092187;28;20207;-82
2024/01/17 02:49:26;;;;;;;20.37;14.63;;;;;;;;;;5092209;28;20583;-83
2024/01/17 02:51:53;;;;;;;12.23;8.80;;;;;;;;;;5091524;28;20670;-83
2024/01/17 02:54:19;;;;;;;8.37;6.37;;;;;;;;;;5090893;28;20200;-84
2024/01/17 02:56:46;;;;;;;6.80;5.23;;;;;;;;;;5091889;28;20196;-83
2024/01/17 02:59:14;;;;;;;10.43;6.90;;;;;;;;;;5091780;28;20193;-83
2024/01/17 03:01:41;;;;;;;10.03;8.50;;;;;;;;;;5091493;28;20224;-83
2024/01/17 03:04:08;;;;;;;13.73;9.30;;;;;;;;;;5091702;28;20192;-83
2024/01/17 03:06:34;;;;;;;13.47;9.57;;;;;;;;;;5091708;28;20674;-83
2024/01/17 03:09:01;;;;;;;12.37;8.23;;;;;;;;;;5091939;28;20706;-83
2024/01/17 03:11:28;;;;;;;7.40;6.07;;;;;;;;;;5092365;28;20218;-82
2024/01/17 03:13:55;;;;;;;8.80;5.73;;;;;;;;;;5091503;28;20203;-83
2024/01/17 03:16:23;;;;;;;9.20;6.90;;;;;;;;;;5092066;28;20204;-83
2024/01/17 03:18:50;;;;;;;13.33;7.37;;;;;;;;;;5089583;28;20203;-78
2024/01/17 03:21:17;;;;;;;7.77;6.33;;;;;;;;;;5090996;28;20220;-78
2024/01/17 03:23:44;;;;;;;11.10;9.73;;;;;;;;;;5090720;28;20208;-78
2024/01/17 03:26:12;;;;;;;8.63;7.30;;;;;;;;;;5091173;28;20200;-77
2024/01/17 03:28:39;;;;;;;6.43;5.23;;;;;;;;;;5090908;28;20230;-78
2024/01/17 03:31:06;;;;;;;6.67;4.73;;;;;;;;;;5091195;28;20259;-79
2024/01/17 03:33:34;;;;;;;7.43;4.53;;;;;;;;;;5091061;28;20204;-78
2024/01/17 03:36:01;;;;;;;8.27;5.17;;;;;;;;;;5091374;28;20212;-78
2024/01/17 03:38:28;;;;;;;4.57;4.10;;;;;;;;;;5090863;28;20207;-78
2024/01/17 03:40:56;;;;;;;5.77;4.53;;;;;;;;;;5091614;28;20208;-78
2024/01/17 03:43:23;;;;;;;4.33;3.90;;;;;;;;;;5090648;28;20224;-78
2024/01/17 03:45:51;;;;;;;3.73;3.13;;;;;;;;;;5091274;28;20279;-78
2024/01/17 03:48:18;;;;;;;4.10;3.40;;;;;;;;;;5090962;28;20207;-79
2024/01/17 03:50:46;;;;;;;4.07;3.30;;;;;;;;;;5090832;28;20208;-82
2024/01/17 03:53:13;;;;;;;4.60;3.83;;;;;;;;;;5089013;28;20208;-82
2024/01/17 03:55:39;;;;;;;4.57;3.37;;;;;;;;;;5090710;28;20197;-81
2024/01/17 03:58:06;;;;;;;3.10;2.80;;;;;;;;;;5091037;28;20197;-81
2024/01/17 04:00:33;;;;;;;3.33;2.97;;;;;;;;;;5090560;28;20201;-81
2024/01/17 04:03:00;;;;;;;4.20;3.03;;;;;;;;;;5090326;28;20220;-81
2024/01/17 04:05:26;;;;;;;4.73;4.00;;;;;;;;;;5090164;28;20212;-81
2024/01/17 04:07:54;;;;;;;6.37;4.53;;;;;;;;;;5090666;28;20207;-81
2024/01/17 04:10:21;;;;;;;5.60;3.93;;;;;;;;;;5086920;28;20204;-81
2024/01/17 04:12:48;;;;;;;6.33;5.30;;;;;;;;;;5090225;28;20211;-82
2024/01/17 04:15:15;;;;;;;6.47;4.10;;;;;;;;;;5090287;28;20221;-82
2024/01/17 04:17:42;;;;;;;3.47;3.10;;;;;;;;;;5090540;28;20208;-82
2024/01/17 04:20:09;;;;;;;8.57;6.53;;;;;;;;;;5090545;28;20781;-82
2024/01/17 04:22:36;;;;;;;5.37;4.27;;;;;;;;;;5089707;28;20282;-82
2024/01/17 04:25:05;;;;;;;4.03;3.63;;;;;;;;;;5088909;28;20850;-81
2024/01/17 04:27:32;;;;;;;4.57;3.53;;;;;;;;;;5090600;28;20200;-83
2024/01/17 04:29:59;;;;;;;3.97;3.50;;;;;;;;;;5090582;28;20228;-83
2024/01/17 04:32:26;;;;;;;5.23;3.30;;;;;;;;;;5090566;28;20200;-82
2024/01/17 04:34:55;;;;;;;4.67;4.10;;;;;;;;;;5090623;28;20212;-82
2024/01/17 04:37:22;;;;;;;6.00;4.97;;;;;;;;;;5090434;28;20226;-83
2024/01/17 04:39:49;;;;;;;7.00;5.70;;;;;;;;;;5090525;28;20683;-83
2024/01/17 04:42:17;;;;;;;8.40;5.97;;;;;;;;;;5090881;28;20223;-84
2024/01/17 04:44:45;;;;;;;6.80;5.87;;;;;;;;;;5090413;28;20196;-82
2024/01/17 04:47:13;;;;;;;7.10;6.00;;;;;;;;;;5090839;28;20211;-83
2024/01/17 04:49:40;;;;;;;5.73;3.97;;;;;;;;;;5090284;28;20295;-82
2024/01/17 04:52:09;;;;;;;4.67;4.13;;;;;;;;;;5090529;28;20201;-82
2024/01/17 04:54:36;;;;;;;5.03;3.90;;;;;;;;;;5090307;28;20211;-82
2024/01/17 04:57:03;;;;;;;5.47;4.93;;;;;;;;;;5090458;28;20202;-82
2024/01/17 04:59:32;;;;;;;4.90;4.40;;;;;;;;;;5090706;28;20201;-83
2024/01/17 05:01:58;;;;;;;17.20;14.73;;;;;;;;;;5088340;28;20224;-79
2024/01/17 05:04:25;;;;;;;8.13;6.47;;;;;;;;;;5090023;28;20201;-79
2024/01/17 05:06:55;;;;;;;5.13;4.63;;;;;;;;;;5089769;28;20690;-80
2024/01/17 05:09:22;;;;;;;5.00;4.53;;;;;;;;;;5089607;28;20204;-80
2024/01/17 05:11:49;;;;;;;4.40;3.83;;;;;;;;;;5089598;28;20291;-82
2024/01/17 05:14:16;;;;;;;3.93;3.60;;;;;;;;;;5090245;28;20561;-80
2024/01/17 05:16:44;;;;;;;6.17;3.63;;;;;;;;;;5091202;28;20204;-81
2024/01/17 05:19:13;;;;;;;4.33;3.93;;;;;;;;;;5093704;28;20670;-80
2024/01/17 05:21:40;;;;;;;9.03;7.33;;;;;;;;;;5093472;28;20196;-80
2024/01/17 05:24:07;;;;;;;13.97;5.67;;;;;;;;;;5093767;28;20205;-80
2024/01/17 05:26:34;;;;;;;4.67;3.73;;;;;;;;;;5080974;28;20215;-80
2024/01/17 05:29:01;;;;;;;4.10;3.60;;;;;;;;;;5092120;28;20228;-80
2024/01/17 05:31:28;;;;;;;6.07;4.67;;;;;;;;;;5092672;28;20200;-80
2024/01/17 05:33:56;;;;;;;4.63;4.17;;;;;;;;;;5091339;28;20196;-80
2024/01/17 05:36:23;;;;;;;3.97;3.30;;;;;;;;;;5090577;28;20697;-80
2024/01/17 05:38:49;;;;;;;9.97;7.83;;;;;;;;;;5091750;28;20212;-81
2024/01/17 05:41:16;;;;;;;12.10;10.27;;;;;;;;;;5093029;28;20205;-80
2024/01/17 05:43:43;;;;;;;9.20;6.63;;;;;;;;;;5093055;28;20223;-80
2024/01/17 05:46:10;;;;;;;15.17;10.60;;;;;;;;;;5092637;28;20208;-80
2024/01/17 05:48:37;;;;;;;16.17;13.00;;;;;;;;;;5092162;28;20215;-80
2024/01/17 05:51:06;;;;;;;21.80;15.87;;;;;;;;;;5092927;28;20597;-80
2024/01/17 05:53:33;;;;;;;23.43;16.70;;;;;;;;;;5092915;28;20283;-80
2024/01/17 05:55:59;;;;;;;19.63;13.23;;;;;;;;;;5092841;28;20204;-80
2024/01/17 05:58:26;;;;;;;26.10;17.63;;;;;;;;;;5092830;28;20686;-80
2024/01/17 06:00:53;;;;;;;19.40;13.87;;;;;;;;;;5093506;28;20200;-80
2024/01/17 06:03:20;;;;;;;9.87;7.97;;;;;;;;;;5092908;28;20230;-81
2024/01/17 06:05:46;;;;;;;7.60;6.80;;;;;;;;;;5093722;28;20234;-80
2024/01/17 06:08:14;;;;;;;8.33;6.63;;;;;;;;;;5092966;28;20670;-80
2024/01/17 06:10:41;;;;;;;7.83;6.53;;;;;;;;;;5092762;28;20693;-80
2024/01/17 06:13:09;;;;;;;12.23;7.67;;;;;;;;;;5092900;28;20692;-80
2024/01/17 06:15:35;;;;;;;11.77;8.87;;;;;;;;;;5093007;28;20674;-80
2024/01/17 06:18:02;;;;;;;8.77;7.20;;;;;;;;;;5092322;28;20207;-80
2024/01/17 06:20:30;;;;;;;8.47;7.03;;;;;;;;;;5092944;28;20218;-80
2024/01/17 06:22:57;;;;;;;11.57;9.07;;;;;;;;;;5092835;28;20226;-80
2024/01/17 06:25:25;;;;;;;13.27;9.77;;;;;;;;;;5092967;28;20200;-80
2024/01/17 06:27:54;;;;;;;16.93;14.37;;;;;;;;;;5091889;28;20654;-80
2024/01/17 06:30:21;;;;;;;16.90;13.00;;;;;;;;;;5092703;28;20589;-80
2024/01/17 06:32:47;;;;;;;14.00;12.60;;;;;;;;;;5079333;28;20197;-80
2024/01/17 06:35:15;;;;;;;19.20;13.40;;;;;;;;;;5092845;28;20215;-81
2024/01/17 06:37:42;;;;;;;14.57;11.13;;;;;;;;;;5092062;28;20741;-79
2024/01/17 06:40:10;;;;;;;14.40;10.73;;;;;;;;;;5092469;28;20208;-80
2024/01/17 06:42:39;;;;;;;12.77;10.23;;;;;;;;;;5092559;28;20266;-80
2024/01/17 06:45:06;;;;;;;12.73;9.37;;;;;;;;;;5092416;28;20204;-80
2024/01/17 06:47:33;;;;;;;9.50;8.50;;;;;;;;;;5091832;28;20204;-80
2024/01/17 06:50:00;;;;;;;10.03;8.50;;;;;;;;;;5092196;28;20200;-80
2024/01/17 06:52:27;;;;;;;8.47;7.57;;;;;;;;;;5092622;28;20201;-80
2024/01/17 06:54:54;;;;;;;8.43;6.43;;;;;;;;;;5091891;28;20249;-79
2024/01/17 06:57:21;;;;;;;8.67;7.03;;;;;;;;;;5092288;28;20200;-79
2024/01/17 06:59:49;;;;;;;16.83;9.83;;;;;;;;;;5091933;28;20598;-79
2024/01/17 07:02:16;;;;;;;17.10;11.73;;;;;;;;;;5092272;28;20200;-79
2024/01/17 07:04:43;;;;;;;17.27;11.57;;;;;;;;;;5091898;28;20291;-79
2024/01/17 07:07:10;;;;;;;31.37;21.47;;;;;;;;;;5092215;28;20208;-79
2024/01/17 07:09:36;;;;;;;88.00;52.43;;;;;;;;;;5093820;28;20563;-80
2024/01/17 07:12:05;;;;;;;44.00;27.83;;;;;;;;;;5102766;28;20200;-80
2024/01/17 07:14:32;;;;;;;32.97;22.20;;;;;;;;;;5091494;28;20210;-80
2024/01/17 07:17:00;;;;;;;25.17;17.00;;;;;;;;;;5091731;28;20197;-81
2024/01/17 07:19:27;;;;;;;21.80;13.40;;;;;;;;;;5091344;28;20209;-81
2024/01/17 07:21:54;;;;;;;31.03;27.73;;;;;;;;;;5092069;28;20663;-81
2024/01/17 07:24:20;;;;;;;29.90;25.77;;;;;;;;;;5091183;28;20212;-82
2024/01/17 07:26:47;;;;;;;23.13;20.73;;;;;;;;;;5091628;28;20645;-82
2024/01/17 07:29:15;;;;;;;12.37;11.07;;;;;;;;;;5091604;28;20230;-82
2024/01/17 07:31:42;;;;;;;16.17;11.93;;;;;;;;;;5091553;28;20200;-82
2024/01/17 07:34:11;;;;;;;18.00;13.77;;;;;;;;;;5090908;28;20266;-81
2024/01/17 07:36:39;;;;;;;14.83;13.17;;;;;;;;;;5091792;28;20204;-82
2024/01/17 07:39:06;;;;;;;16.63;11.97;;;;;;;;;;5090746;28;20203;-81
2024/01/17 07:41:33;;;;;;;13.73;10.90;;;;;;;;;;5091398;28;20246;-81
2024/01/17 07:44:00;;;;;;;14.33;10.97;;;;;;;;;;5091055;28;20224;-81
2024/01/17 07:46:27;;;;;;;26.13;14.77;;;;;;;;;;5091244;28;20640;-80
2024/01/17 07:48:54;;;;;;;12.33;8.70;;;;;;;;;;5090912;28;20254;-80
2024/01/17 07:51:22;;;;;;;15.40;7.43;;;;;;;;;;5091879;28;20200;-79
2024/01/17 07:53:49;;;;;;;21.50;7.47;;;;;;;;;;5091287;28;20204;-79
2024/01/17 07:56:16;;;;;;;43.47;24.30;;;;;;;;;;5090747;28;20644;-78
2024/01/17 07:58:42;;;;;;;25.00;18.50;;;;;;;;;;5091026;28;20640;-78
2024/01/17 08:01:09;;;;;;;15.13;10.33;;;;;;;;;;5091093;28;20200;-78
2024/01/17 08:03:36;;;;;;;13.33;9.83;;;;;;;;;;5090328;28;20697;-78
2024/01/17 08:06:03;;;;;;;15.13;8.93;;;;;;;;;;5090929;28;20204;-80
2024/01/17 08:08:32;;;;;;;13.87;8.90;;;;;;;;;;5077889;28;20242;-78
2024/01/17 08:10:58;;;;;;;16.80;9.73;;;;;;;;;;5090674;28;20204;-78
2024/01/17 08:13:25;;;;;;;15.17;10.57;;;;;;;;;;5090789;28;20204;-78
2024/01/17 08:15:55;;;;;;;11.40;8.43;;;;;;;;;;5090811;28;20215;-79
2024/01/17 08:18:23;;;;;;;12.23;9.20;;;;;;;;;;5090883;28;20204;-80
2024/01/17 08:20:49;;;;;;;10.07;8.57;;;;;;;;;;5090704;28;20673;-77
2024/01/17 08:23:16;;;;;;;13.80;10.27;;;;;;;;;;5090311;28;20721;-77
2024/01/17 08:25:45;;;;;;;16.50;11.40;;;;;;;;;;5090912;28;20204;-77
2024/01/17 08:28:12;;;;;;;13.97;8.67;;;;;;;;;;5090589;28;20228;-77
2024/01/17 08:30:39;;;;;;;9.40;8.50;;;;;;;;;;5091003;28;21260;-77
2024/01/17 08:33:06;;;;;;;12.87;10.87;;;;;;;;;;5090268;28;20299;-77
2024/01/17 08:35:32;;;;;;;11.00;8.57;;;;;;;;;;5090536;28;20204;-77
2024/01/17 08:38:00;;;;;;;10.70;6.37;;;;;;;;;;5090433;28;20200;-77
2024/01/17 08:40:26;;;;;;;11.20;6.63;;;;;;;;;;5091218;28;20199;-77
2024/01/17 08:42:54;;;;;;;7.83;4.53;;;;;;;;;;5090327;28;20317;-79
2024/01/17 08:45:22;;;;;;;7.87;6.40;;;;;;;;;;5090563;28;20203;-77
2024/01/17 08:47:48;;;;;;;4.90;3.80;;;;;;;;;;5090504;28;20200;-77
2024/01/17 08:50:15;;;;;;;7.77;5.97;;;;;;;;;;5090476;28;20201;-77
2024/01/17 08:52:42;;;;;;;7.33;3.73;;;;;;;;;;5093670;28;20258;-77
2024/01/17 08:55:10;;;;;;;4.33;3.83;;;;;;;;;;5094634;28;20207;-77
2024/01/17 08:57:37;;;;;;;6.30;3.90;;;;;;;;;;5094394;28;20203;-77
2024/01/17 09:00:07;;;;;;;6.30;3.90;;;;;;;;;;5094271;28;20246;-77
2024/01/17 09:02:34;;;;;;;4.80;4.43;;;;;;;;;;5094073;28;20674;-77
2024/01/17 09:05:00;;;;;;;6.23;4.00;;;;;;;;;;5093996;28;20775;-77
2024/01/17 09:07:27;;;;;;;4.27;3.87;;;;;;;;;;5094506;28;20205;-77
2024/01/17 09:09:54;;;;;;;8.77;4.20;;;;;;;;;;5094169;28;20666;-77
2024/01/17 09:12:22;;;;;;;5.10;4.03;;;;;;;;;;5094174;28;20204;-77
2024/01/17 09:14:50;;;;;;;4.97;4.47;;;;;;;;;;5093851;28;20196;-77
2024/01/17 09:17:18;;;;;;;6.80;5.37;;;;;;;;;;5094432;28;20257;-77
2024/01/17 09:19:46;;;;;;;6.77;5.37;;;;;;;;;;5093881;28;20508;-77
2024/01/17 09:22:13;;;;;;;5.17;4.37;;;;;;;;;;5094375;28;20227;-77
2024/01/17 09:24:41;;;;;;;19.23;5.80;;;;;;;;;;5093722;28;20251;-77
2024/01/17 09:27:08;;;;;;;30.47;21.60;;;;;;;;;;5093569;28;20250;-77
2024/01/17 09:29:35;;;;;;;15.00;10.80;;;;;;;;;;5093694;28;20289;-77
2024/01/17 09:32:02;;;;;;;11.60;6.77;;;;;;;;;;5093794;28;20200;-78
2024/01/17 09:34:32;;;;;;;11.80;6.20;;;;;;;;;;5093640;28;20204;-77
2024/01/17 09:37:00;;;;;;;8.60;6.67;;;;;;;;;;5093620;28;20617;-77
2024/01/17 09:39:28;;;;;;;10.73;6.93;;;;;;;;;;5093796;28;20640;-78
2024/01/17 09:41:55;;;;;;;5.87;5.20;;;;;;;;;;5093522;28;20196;-77
2024/01/17 09:44:22;;;;;;;9.03;7.47;;;;;;;;;;5093681;28;20219;-77
2024/01/17 09:46:50;;;;;;;11.10;7.13;;;;;;;;;;5093109;28;20196;-78
2024/01/17 09:49:16;;;;;;;6.40;4.50;;;;;;;;;;5093130;28;20587;-78
2024/01/17 09:51:45;;;;;;;8.93;5.37;;;;;;;;;;5093677;28;20330;-77
2024/01/17 09:54:12;;;;;;;7.37;6.63;;;;;;;;;;5093618;28;20200;-78
2024/01/17 09:56:40;;;;;;;5.83;5.23;;;;;;;;;;5093026;28;20275;-78
2024/01/17 09:59:16;;;;;;;6.90;6.00;;;;;;;;;;5092901;28;20692;-77
2024/01/17 10:01:44;;;;;;;7.63;6.07;;;;;;;;;;5092845;28;20200;-78
2024/01/17 10:04:17;;;;;;;6.87;5.73;;;;;;;;;;5093057;28;20224;-77
2024/01/17 10:06:48;;;;;;;9.50;5.50;;;;;;;;;;5093050;28;20278;-77
2024/01/17 10:09:16;;;;;;;13.53;7.03;;;;;;;;;;5092628;28;20675;-78
2024/01/17 10:11:42;;;;;;;12.47;6.53;;;;;;;;;;5079679;28;20582;-77
2024/01/17 10:14:09;;;;;;;7.13;4.73;;;;;;;;;;5092823;28;20204;-78
2024/01/17 10:16:36;;;;;;;5.40;4.90;;;;;;;;;;5093024;28;20204;-77
2024/01/17 10:19:04;;;;;;;7.03;5.20;;;;;;;;;;5092088;28;20594;-78
2024/01/17 10:21:33;;;;;;;5.53;4.43;;;;;;;;;;5092802;28;20200;-78
2024/01/17 10:24:02;;;;;;;4.87;4.37;;;;;;;;;;5093014;28;20308;-78
2024/01/17 10:26:29;;;;;;;5.13;4.63;;;;;;;;;;5093005;28;20200;-78
2024/01/17 10:28:56;;;;;;;6.73;4.73;;;;;;;;;;5092193;28;20767;-78
2024/01/17 10:31:23;;;;;;;5.23;4.60;;;;;;;;;;5093174;28;20208;-78
2024/01/17 10:33:50;;;;;;;5.13;4.10;;;;;;;;;;5091905;28;20211;-77
2024/01/17 10:36:17;;;;;;;7.90;4.57;;;;;;;;;;5093073;28;20631;-78
2024/01/17 10:38:46;;;;;;;7.97;4.43;;;;;;;;;;5092249;28;20606;-77
2024/01/17 10:41:14;;;;;;;5.73;5.10;;;;;;;;;;5092391;28;20246;-78
2024/01/17 10:43:55;;;;;;;5.10;4.60;;;;;;;;;;5092136;28;20258;-77
2024/01/17 10:46:22;;;;;;;5.90;4.90;;;;;;;;;;5092146;28;20212;-78
2024/01/17 10:48:49;;;;;;;8.63;5.07;;;;;;;;;;5105574;28;20200;-78
2024/01/17 10:51:25;;;;;;;9.43;5.20;;;;;;;;;;5092619;28;20200;-78
2024/01/17 10:53:55;;;;;;;7.17;5.17;;;;;;;;;;5092348;28;20204;-78
2024/01/17 10:56:24;;;;;;;8.03;4.50;;;;;;;;;;5092249;28;20699;-78
2024/01/17 10:58:54;;;;;;;5.07;4.57;;;;;;;;;;5092119;28;20200;-77
2024/01/17 11:01:25;;;;;;;7.10;4.97;;;;;;;;;;5092173;28;20601;-78
2024/01/17 11:03:54;;;;;;;9.07;5.60;;;;;;;;;;5091656;28;20224;-77
2024/01/17 11:06:21;;;;;;;4.60;4.20;;;;;;;;;;5091861;28;20236;-78
2024/01/17 11:08:49;;;;;;;4.90;4.27;;;;;;;;;;5091708;28;20693;-78
2024/01/17 11:11:16;;;;;;;5.60;4.70;;;;;;;;;;5091960;28;20200;-78
2024/01/17 11:13:45;;;;;;;5.20;4.70;;;;;;;;;;5090962;28;20212;-78
2024/01/17 11:16:16;;;;;;;6.83;6.10;;;;;;;;;;5092129;28;20204;-78
2024/01/17 11:18:45;;;;;;;9.50;4.70;;;;;;;;;;5091825;28;20577;-77
2024/01/17 11:21:17;;;;;;;4.57;4.03;;;;;;;;;;5091528;28;20678;-78
2024/01/17 11:23:48;;;;;;;6.40;4.43;;;;;;;;;;5091508;28;20594;-78
2024/01/17 11:26:21;;;;;;;5.10;4.10;;;;;;;;;;5091589;28;20293;-77
2024/01/17 11:28:59;;;;;;;6.93;4.83;;;;;;;;;;5091283;28;20228;-78
2024/01/17 11:31:38;;;;;;;6.97;4.67;;;;;;;;;;5091673;28;20234;-78
2024/01/17 11:34:05;;;;;;;5.57;4.73;;;;;;;;;;5091407;28;20206;-78
2024/01/17 11:36:42;;;;;;;5.43;4.93;;;;;;;;;;5091802;28;20213;-78
2024/01/17 11:39:13;;;;;;;8.83;5.10;;;;;;;;;;5090917;28;20188;-78
2024/01/17 11:41:42;;;;;;;12.47;7.20;;;;;;;;;;5091423;28;20292;-78
2024/01/17 11:44:12;;;;;;;9.10;6.63;;;;;;;;;;5091365;28;20224;-78
2024/01/17 11:46:39;;;;;;;6.60;5.90;;;;;;;;;;5091254;28;20699;-78
2024/01/17 11:49:09;;;;;;;7.73;4.97;;;;;;;;;;5090865;28;20204;-78
2024/01/17 11:51:37;;;;;;;7.20;5.70;;;;;;;;;;5091114;28;20690;-77
2024/01/17 11:54:05;;;;;;;8.07;6.97;;;;;;;;;;5090953;28;20211;-78
2024/01/17 11:56:32;;;;;;;7.23;6.50;;;;;;;;;;5091029;28;20294;-78
2024/01/17 11:59:05;;;;;;;8.47;7.33;;;;;;;;;;5091077;28;20200;-78
2024/01/17 12:01:41;;;;;;;11.10;6.30;;;;;;;;;;5090840;28;20204;-78
2024/01/17 12:04:10;;;;;;;8.30;6.33;;;;;;;;;;5091241;28;20223;-78
2024/01/17 12:06:38;;;;;;;8.77;7.57;;;;;;;;;;5090001;28;20206;-78
2024/01/17 12:09:07;;;;;;;8.40;6.70;;;;;;;;;;5090859;28;20706;-78
2024/01/17 12:11:34;;;;;;;8.47;6.17;;;;;;;;;;5090880;28;20208;-78
2024/01/17 12:14:02;;;;;;;10.00;6.40;;;;;;;;;;5090537;28;20208;-78
2024/01/17 12:16:28;;;;;;;7.90;6.73;;;;;;;;;;5090793;28;20200;-78
2024/01/17 12:18:59;;;;;;;7.73;6.70;;;;;;;;;;5091062;28;20273;-77
2024/01/17 12:21:26;;;;;;;8.57;7.03;;;;;;;;;;5077692;28;20208;-78
2024/01/17 12:23:56;;;;;;;7.17;6.47;;;;;;;;;;5090697;28;20808;-78
2024/01/17 12:26:23;;;;;;;7.97;6.33;;;;;;;;;;5095647;28;20295;-77
2024/01/17 12:28:50;;;;;;;9.20;7.03;;;;;;;;;;5097077;28;20228;-78
2024/01/17 12:31:17;;;;;;;9.30;8.30;;;;;;;;;;5097590;28;20594;-78
2024/01/17 12:33:45;;;;;;;8.90;8.00;;;;;;;;;;5097169;28;20207;-78
2024/01/17 12:36:17;;;;;;;8.17;7.37;;;;;;;;;;5097397;28;20261;-77
2024/01/17 12:38:43;;;;;;;10.03;8.00;;;;;;;;;;5097218;28;20192;-78
2024/01/17 12:41:10;;;;;;;9.63;7.57;;;;;;;;;;5097551;28;20208;-78
2024/01/17 12:43:37;;;;;;;8.40;7.50;;;;;;;;;;5096805;28;20204;-78
2024/01/17 12:46:06;;;;;;;14.13;9.97;;;;;;;;;;5097629;28;20644;-78
2024/01/17 12:48:34;;;;;;;11.53;9.40;;;;;;;;;;5097083;28;20754;-78
2024/01/17 12:51:05;;;;;;;9.77;8.33;;;;;;;;;;5097244;28;20200;-78
2024/01/17 12:53:33;;;;;;;69.07;33.50;;;;;;;;;;5097376;28;20628;-78
2024/01/17 12:56:01;;;;;;;47.60;28.00;;;;;;;;;;5097675;28;20270;-78
2024/01/17 12:58:31;;;;;;;31.93;24.63;;;;;;;;;;5096921;28;20200;-79
2024/01/17 13:00:57;;;;;;;17.57;13.90;;;;;;;;;;5097599;28;20226;-78
2024/01/17 13:03:25;;;;;;;9.07;7.43;;;;;;;;;;5096902;28;20211;-78
2024/01/17 13:05:58;;;;;;;12.23;10.43;;;;;;;;;;5097287;28;20255;-78
2024/01/17 13:08:25;;;;;;;9.40;8.43;;;;;;;;;;5097297;28;20219;-78
2024/01/17 13:10:53;;;;;;;8.17;7.47;;;;;;;;;;5097352;28;20578;-78
2024/01/17 13:13:21;;;;;;;10.23;6.73;;;;;;;;;;5096740;28;20210;-78
2024/01/17 13:15:50;;;;;;;8.27;6.87;;;;;;;;;;5097183;28;20204;-78
2024/01/17 13:18:16;;;;;;;7.83;6.97;;;;;;;;;;5096952;28;20203;-78
2024/01/17 13:20:43;;;;;;;9.33;7.30;;;;;;;;;;5096985;28;20224;-78
2024/01/17 13:23:10;;;;;;;8.13;7.30;;;;;;;;;;5097359;28;20204;-78
2024/01/17 13:25:37;;;;;;;11.20;8.97;;;;;;;;;;5096790;28;20234;-78
2024/01/17 13:28:08;;;;;;;11.47;6.80;;;;;;;;;;5096573;28;20220;-78
2024/01/17 13:30:37;;;;;;;8.97;7.23;;;;;;;;;;5097723;28;20208;-78
2024/01/17 13:33:05;;;;;;;9.87;7.43;;;;;;;;;;5096784;28;20746;-78
2024/01/17 13:35:33;;;;;;;12.00;7.23;;;;;;;;;;5096697;28;20834;-78
2024/01/17 13:38:01;;;;;;;14.40;8.20;;;;;;;;;;5093589;28;20200;-78
2024/01/17 13:40:28;;;;;;;7.40;6.67;;;;;;;;;;5093426;28;20231;-78
2024/01/17 13:42:54;;;;;;;8.47;7.30;;;;;;;;;;5093786;28;20212;-78
2024/01/17 13:45:23;;;;;;;6.77;6.07;;;;;;;;;;5093808;28;20216;-78
2024/01/17 13:47:50;;;;;;;9.43;6.53;;;;;;;;;;5093295;28;20200;-78
2024/01/17 13:50:21;;;;;;;11.47;8.53;;;;;;;;;;5092753;28;20716;-78
2024/01/17 13:52:51;;;;;;;7.33;6.60;;;;;;;;;;5093402;28;20227;-78
2024/01/17 13:55:18;;;;;;;8.27;7.07;;;;;;;;;;5092559;28;20204;-78
2024/01/17 13:57:45;;;;;;;10.80;7.73;;;;;;;;;;5092801;28;20204;-78
2024/01/17 14:00:16;;;;;;;10.73;6.90;;;;;;;;;;5093088;28;20589;-78
2024/01/17 14:02:44;;;;;;;8.00;7.10;;;;;;;;;;5093501;28;20207;-78
2024/01/17 14:05:12;;;;;;;12.30;8.37;;;;;;;;;;5092885;28;20228;-78
2024/01/17 14:07:40;;;;;;;10.80;7.90;;;;;;;;;;5092548;28;20627;-79
2024/01/17 14:10:09;;;;;;;19.67;12.73;;;;;;;;;;5093249;28;20196;-78
2024/01/17 14:12:36;;;;;;;20.53;17.63;;;;;;;;;;5106317;28;20747;-79
2024/01/17 14:15:08;;;;;;;15.57;12.17;;;;;;;;;;5093075;28;20200;-78
2024/01/17 14:17:36;;;;;;;11.93;10.83;;;;;;;;;;5092511;28;20250;-79
2024/01/17 14:20:08;;;;;;;18.70;15.20;;;;;;;;;;5092978;28;20709;-78
2024/01/17 14:22:36;;;;;;;137.80;77.83;;;;;;;;;;5092682;28;20201;-78
2024/01/17 14:25:05;;;;;;;67.60;46.93;;;;;;;;;;5092501;28;20223;-79
2024/01/17 14:27:32;;;;;;;107.77;69.80;;;;;;;;;;5092625;28;20204;-80
2024/01/17 14:29:59;;;;;;;85.40;59.33;;;;;;;;;;5092804;28;20717;-79
2024/01/17 14:32:26;;;;;;;95.47;65.07;;;;;;;;;;5092395;28;20283;-79
2024/01/17 14:34:53;;;;;;;93.13;59.27;;;;;;;;;;5092665;28;20203;-78
2024/01/17 14:37:21;;;;;;;62.03;40.17;;;;;;;;;;5092707;28;20225;-79
2024/01/17 14:39:48;;;;;;;25.23;18.70;;;;;;;;;;5092511;28;20630;-79